Time;durP1;ratioP1;P1;durP2;ratioP2;P2;SDS_P1;SDS_P2;PMS_P1;PMS_P2;Temp;Humidity;BMP_temperature;BMP_pressure;BME280_temperature;BME280_humidity;BME280_pressure;Samples;Min_cycle;Max_cycle;Signal;HPM_P1;HPM_P2
2021/04/19 00:00:12;;;;;;;10.32;9.32;;;;;;;4.97;82.98;95939.22;4953568;28;20059;-47
2021/04/19 00:02:38;;;;;;;11.20;10.15;;;;;;;5.01;82.80;95943.31;4956552;28;20065;-45
2021/04/19 00:05:07;;;;;;;11.45;10.35;;;;;;;5.04;83.21;95937.03;4951143;28;20058;-44
2021/04/19 00:07:32;;;;;;;12.00;10.82;;;;;;;5.10;82.34;95947.91;4955746;28;20031;-44
2021/04/19 00:09:58;;;;;;;11.38;10.25;;;;;;;5.04;82.53;95939.66;4957746;28;20031;-45
2021/04/19 00:12:24;;;;;;;11.02;10.23;;;;;;;5.00;83.61;95944.25;4954813;28;20034;-46
2021/04/19 00:14:50;;;;;;;13.23;11.73;;;;;;;4.91;83.81;95937.88;4951082;28;20035;-45
2021/04/19 00:17:15;;;;;;;13.00;11.90;;;;;;;4.78;84.74;95937.00;4954430;28;20415;-44
2021/04/19 00:19:41;;;;;;;11.98;10.88;;;;;;;4.74;84.42;95936.34;4955621;28;20023;-45
2021/04/19 00:22:07;;;;;;;12.07;10.98;;;;;;;4.73;83.68;95924.22;4956742;28;20031;-45
2021/04/19 00:24:32;;;;;;;12.30;11.10;;;;;;;4.71;83.61;95928.72;4956160;28;20034;-45
2021/04/19 00:26:58;;;;;;;11.27;10.27;;;;;;;4.73;83.66;95930.31;4955211;28;20030;-44
2021/04/19 00:29:24;;;;;;;12.63;11.43;;;;;;;4.68;84.66;95932.38;4957675;28;20034;-45
2021/04/19 00:31:49;;;;;;;21.75;16.95;;;;;;;4.62;84.24;95931.94;4952954;28;20035;-44
2021/04/19 00:34:15;;;;;;;27.70;21.08;;;;;;;4.58;83.95;95926.06;4957554;28;20030;-45
2021/04/19 00:36:41;;;;;;;25.00;19.42;;;;;;;4.57;84.10;95920.03;4953388;28;20106;-44
2021/04/19 00:39:06;;;;;;;26.00;19.13;;;;;;;4.55;83.87;95927.13;4952985;28;20464;-45
2021/04/19 00:41:33;;;;;;;20.50;17.75;;;;;;;4.49;83.99;95924.06;4952564;28;20058;-46
2021/04/19 00:43:58;;;;;;;18.20;16.30;;;;;;;4.43;83.83;95931.34;4954784;28;20852;-46
2021/04/19 00:46:24;;;;;;;16.20;14.55;;;;;;;4.40;83.99;95928.09;4956035;28;20026;-44
2021/04/19 00:48:50;;;;;;;14.23;12.93;;;;;;;4.34;84.09;95923.28;4953035;28;20039;-44
2021/04/19 00:51:16;;;;;;;12.27;11.18;;;;;;;4.21;83.96;95923.22;4956878;28;20047;-46
2021/04/19 00:53:42;;;;;;;11.95;10.95;;;;;;;4.14;84.14;95922.78;4955508;28;20019;-46
2021/04/19 00:56:08;;;;;;;13.13;11.93;;;;;;;4.07;83.86;95930.13;4956769;28;20038;-45
2021/04/19 00:58:36;;;;;;;13.30;12.02;;;;;;;4.06;84.06;95928.47;4957558;28;20419;-45
2021/04/19 01:01:04;;;;;;;11.80;10.82;;;;;;;3.92;84.51;95924.13;4952313;28;20538;-45
2021/04/19 01:03:30;;;;;;;12.07;10.98;;;;;;;3.85;84.11;95922.81;4953810;28;20031;-45
2021/04/19 01:05:56;;;;;;;12.23;11.00;;;;;;;3.84;83.98;95921.97;4953856;28;20023;-44
2021/04/19 01:08:21;;;;;;;12.95;11.77;;;;;;;3.83;83.81;95925.53;4955336;28;20035;-44
2021/04/19 01:10:47;;;;;;;12.70;11.57;;;;;;;3.82;83.98;95928.22;4953147;28;20396;-46
2021/04/19 01:13:13;;;;;;;13.77;12.35;;;;;;;3.78;84.55;95926.72;4955071;28;20023;-44
2021/04/19 01:15:40;;;;;;;14.27;12.50;;;;;;;3.68;83.87;95922.09;4956606;28;20082;-48
2021/04/19 01:18:06;;;;;;;12.40;11.40;;;;;;;3.62;84.24;95917.25;4955659;28;20031;-44
2021/04/19 01:20:36;;;;;;;12.45;11.25;;;;;;;3.63;84.60;95911.09;4955604;28;20051;-45
2021/04/19 01:23:02;;;;;;;11.93;10.77;;;;;;;3.66;83.60;95918.75;4952121;28;20419;-46
2021/04/19 01:25:29;;;;;;;13.25;11.82;;;;;;;3.70;83.20;95914.16;4951100;28;20023;-45
2021/04/19 01:27:56;;;;;;;13.57;11.98;;;;;;;3.78;83.29;95919.75;4950523;28;20463;-44
2021/04/19 01:30:25;;;;;;;14.70;13.20;;;;;;;3.78;84.88;95917.16;4956764;28;20031;-46
2021/04/19 01:32:51;;;;;;;13.25;12.15;;;;;;;3.82;84.81;95915.19;4956692;28;20051;-44
2021/04/19 01:35:17;;;;;;;14.25;13.02;;;;;;;3.80;85.02;95917.91;4955167;28;20031;-45
2021/04/19 01:37:43;;;;;;;13.48;12.23;;;;;;;3.95;84.01;95926.53;4957978;28;20031;-45
2021/04/19 01:40:12;;;;;;;13.98;12.77;;;;;;;3.84;84.75;95916.78;4955567;28;20058;-45
2021/04/19 01:42:38;;;;;;;15.15;13.75;;;;;;;3.85;84.22;95923.66;4959163;28;20070;-45
2021/04/19 01:45:05;;;;;;;16.23;14.70;;;;;;;3.77;85.02;95927.66;4956504;28;20028;-45
2021/04/19 01:47:30;;;;;;;16.75;15.20;;;;;;;3.72;84.35;95920.97;4960513;28;20062;-45
2021/04/19 01:49:56;;;;;;;15.90;14.32;;;;;;;3.70;84.81;95927.19;4958548;28;20038;-45
2021/04/19 01:52:22;;;;;;;14.35;13.07;;;;;;;3.73;83.51;95930.47;4957662;28;20059;-46
2021/04/19 01:54:47;;;;;;;11.82;10.90;;;;;;;3.72;83.92;95918.38;4959181;28;20053;-46
2021/04/19 01:57:13;;;;;;;15.02;12.10;;;;;;;3.71;83.24;95926.25;4958409;28;20030;-45
2021/04/19 01:59:40;;;;;;;14.32;13.13;;;;;;;3.66;83.42;95923.97;4958966;28;20022;-44
2021/04/19 02:02:36;;;;;;;15.10;13.77;;;;;;;3.54;84.24;95922.94;4968334;28;20050;-46
2021/04/19 02:05:22;;;;;;;15.20;13.90;;;;;;;3.70;83.63;95933.25;4954713;28;20019;-46
2021/04/19 02:08:15;;;;;;;15.00;13.18;;;;;;;3.55;84.11;95927.22;4958567;28;20499;-46
2021/04/19 02:10:55;;;;;;;17.42;13.52;;;;;;;3.48;84.63;95944.13;4956698;28;20129;-44
2021/04/19 02:13:42;;;;;;;15.15;13.88;;;;;;;3.30;84.88;95933.03;4955200;28;20079;-47
2021/04/19 02:16:29;;;;;;;15.88;14.35;;;;;;;3.17;86.09;95932.94;4958370;28;20031;-46
2021/04/19 02:19:07;;;;;;;14.20;12.82;;;;;;;3.10;85.40;95932.44;4953251;28;20408;-45
2021/04/19 02:22:08;;;;;;;14.45;13.23;;;;;;;3.10;85.30;95942.03;4957617;28;20473;-44
2021/04/19 02:24:38;;;;;;;15.57;14.15;;;;;;;3.00;86.05;95931.34;4952963;28;20086;-44
2021/04/19 02:27:09;;;;;;;17.13;15.27;;;;;;;2.99;85.90;95934.84;4957343;28;20524;-44
2021/04/19 02:29:40;;;;;;;16.55;14.95;;;;;;;2.95;85.65;95933.34;4957129;28;20054;-46
2021/04/19 02:32:17;;;;;;;21.20;18.92;;;;;;;2.93;85.52;95932.59;4955348;28;20035;-44
2021/04/19 02:34:46;;;;;;;21.20;18.98;;;;;;;2.88;85.86;95930.28;4959973;28;20110;-45
2021/04/19 02:37:13;;;;;;;18.23;16.52;;;;;;;2.83;85.01;95933.13;4955737;28;20038;-44
2021/04/19 02:39:42;;;;;;;15.90;14.35;;;;;;;2.85;84.57;95925.22;4955130;28;20023;-45
2021/04/19 02:42:10;;;;;;;14.35;13.02;;;;;;;2.87;84.96;95928.56;4953332;28;20023;-46
2021/04/19 02:44:37;;;;;;;16.88;15.30;;;;;;;2.72;85.71;95928.56;4954911;28;20381;-46
2021/04/19 02:47:04;;;;;;;19.60;16.13;;;;;;;2.64;86.51;95932.50;4957946;28;20387;-44
2021/04/19 02:49:31;;;;;;;16.33;14.60;;;;;;;2.58;85.95;95931.94;4958035;28;20031;-45
2021/04/19 02:52:00;;;;;;;15.25;13.75;;;;;;;2.54;85.62;95927.84;4959328;28;20051;-45
2021/04/19 02:54:27;;;;;;;16.33;14.73;;;;;;;2.55;85.57;95933.88;4958175;28;20027;-45
2021/04/19 02:56:54;;;;;;;14.52;13.05;;;;;;;2.48;85.47;95937.75;4954217;28;20074;-45
2021/04/19 02:59:23;;;;;;;14.90;13.45;;;;;;;2.45;84.98;95935.31;4958147;28;20050;-46
2021/04/19 03:01:54;;;;;;;18.73;16.92;;;;;;;2.49;85.32;95935.03;4954983;28;20063;-46
2021/04/19 03:04:24;;;;;;;18.60;16.73;;;;;;;2.45;84.66;95930.94;4955985;28;20461;-45
2021/04/19 03:06:53;;;;;;;17.52;15.88;;;;;;;2.39;86.16;95937.31;4957027;28;20031;-45
2021/04/19 03:09:22;;;;;;;16.92;15.32;;;;;;;2.33;86.09;95939.44;4952965;28;20051;-44
2021/04/19 03:11:50;;;;;;;18.83;16.98;;;;;;;2.23;85.86;95936.50;4955733;28;20049;-45
2021/04/19 03:14:18;;;;;;;26.83;24.02;;;;;;;2.19;87.14;95945.38;4952992;28;20063;-46
2021/04/19 03:16:50;;;;;;;27.10;24.10;;;;;;;2.25;86.25;95937.25;4957884;28;20555;-46
2021/04/19 03:19:21;;;;;;;33.78;27.98;;;;;;;2.28;86.15;95932.72;4952446;28;20023;-45
2021/04/19 03:21:49;;;;;;;32.28;28.90;;;;;;;2.31;86.25;95944.72;4957253;28;20514;-45
2021/04/19 03:24:15;;;;;;;33.63;30.02;;;;;;;2.26;86.21;95942.34;4957610;28;20034;-45
2021/04/19 03:26:43;;;;;;;37.60;33.63;;;;;;;2.28;85.98;95937.09;4953625;28;20023;-44
2021/04/19 03:29:10;;;;;;;42.65;38.00;;;;;;;2.24;86.08;95941.59;4955158;28;20024;-45
2021/04/19 03:31:51;;;;;;;40.97;36.58;;;;;;;2.25;86.29;95935.47;4949925;28;20023;-45
2021/04/19 03:34:20;;;;;;;32.40;28.90;;;;;;;2.26;85.88;95931.97;4953448;28;20162;-45
2021/04/19 03:36:53;;;;;;;28.85;25.88;;;;;;;2.33;86.01;95931.66;4956572;28;20027;-46
2021/04/19 03:39:20;;;;;;;24.00;21.70;;;;;;;2.35;85.95;95935.00;4952509;28;20492;-45
2021/04/19 03:41:48;;;;;;;23.13;20.73;;;;;;;2.32;85.77;95932.53;4954718;28;20023;-46
2021/04/19 03:44:21;;;;;;;15.77;14.30;;;;;;;2.38;84.73;95934.81;4950601;28;20027;-46
2021/04/19 03:46:50;;;;;;;15.15;13.82;;;;;;;2.28;85.26;95929.28;4957712;28;20488;-45
2021/04/19 03:49:26;;;;;;;15.80;14.30;;;;;;;2.32;85.52;95930.78;4956521;28;20447;-45
2021/04/19 03:51:56;;;;;;;16.05;14.65;;;;;;;2.27;85.69;95933.63;4956090;28;20047;-44
2021/04/19 03:54:27;;;;;;;14.27;13.07;;;;;;;2.23;85.08;95939.09;4955669;28;20035;-44
2021/04/19 03:56:53;;;;;;;15.18;13.88;;;;;;;2.23;85.44;95929.53;4954752;28;20581;-44
2021/04/19 03:59:21;;;;;;;17.02;15.43;;;;;;;2.23;85.64;95924.34;4955678;28;20027;-46
2021/04/19 04:01:48;;;;;;;17.08;15.55;;;;;;;2.23;85.54;95933.91;4959808;28;20027;-44
2021/04/19 04:04:17;;;;;;;17.70;15.07;;;;;;;2.21;85.22;95930.53;4955054;28;20035;-45
2021/04/19 04:06:43;;;;;;;15.45;14.05;;;;;;;2.18;85.82;95935.91;4954405;28;20114;-45
2021/04/19 04:09:09;;;;;;;15.07;13.63;;;;;;;2.18;85.61;95939.34;4956592;28;20039;-48
2021/04/19 04:11:36;;;;;;;17.02;15.50;;;;;;;2.11;86.75;95935.44;4956117;28;20034;-46
2021/04/19 04:14:05;;;;;;;17.17;14.45;;;;;;;2.07;86.24;95941.69;4957613;28;20042;-46
2021/04/19 04:16:30;;;;;;;14.45;13.23;;;;;;;2.04;86.49;95926.28;4946117;28;20495;-44
2021/04/19 04:18:57;;;;;;;14.77;13.38;;;;;;;1.98;86.48;95932.63;4950881;28;20039;-45
2021/04/19 04:21:24;;;;;;;15.05;13.65;;;;;;;1.93;86.08;95939.84;4956193;28;20073;-44
2021/04/19 04:23:50;;;;;;;14.25;12.93;;;;;;;1.88;86.24;95937.50;4953021;28;20411;-45
2021/04/19 04:26:16;;;;;;;15.25;13.85;;;;;;;1.85;85.95;95937.66;4955940;28;20027;-45
2021/04/19 04:28:44;;;;;;;16.88;15.18;;;;;;;1.81;86.70;95936.16;4953278;28;20498;-45
2021/04/19 04:31:10;;;;;;;15.30;13.90;;;;;;;1.81;85.83;95933.53;4954841;28;20444;-44
2021/04/19 04:33:36;;;;;;;15.57;14.18;;;;;;;1.79;85.93;95930.19;4955691;28;20082;-45
2021/04/19 04:36:01;;;;;;;14.52;13.23;;;;;;;1.80;86.08;95930.13;4953710;28;20039;-46
2021/04/19 04:38:27;;;;;;;15.57;14.07;;;;;;;1.81;85.89;95931.81;4954277;28;20424;-46
2021/04/19 04:40:52;;;;;;;15.10;13.77;;;;;;;1.75;86.90;95936.47;4953361;28;20066;-45
2021/04/19 04:43:24;;;;;;;15.38;14.07;;;;;;;1.67;87.05;95935.13;4950324;28;20042;-44
2021/04/19 04:45:55;;;;;;;15.80;14.30;;;;;;;1.66;87.64;95937.81;4956258;28;20027;-45
2021/04/19 04:48:37;;;;;;;14.45;13.13;;;;;;;1.66;86.63;95941.25;4955428;28;20031;-45
2021/04/19 04:51:09;;;;;;;16.42;14.70;;;;;;;1.63;87.32;95933.59;4952748;28;20424;-45
2021/04/19 04:53:43;;;;;;;17.98;16.30;;;;;;;1.55;87.21;95940.97;4951906;28;20042;-45
2021/04/19 04:56:11;;;;;;;16.60;15.13;;;;;;;1.57;87.47;95936.53;4951842;28;20455;-44
2021/04/19 04:58:40;;;;;;;17.00;15.38;;;;;;;1.56;88.02;95940.03;4958239;28;20046;-46
2021/04/19 05:01:08;;;;;;;16.48;15.00;;;;;;;1.60;87.04;95940.72;4956031;28;20042;-45
2021/04/19 05:03:37;;;;;;;17.20;15.80;;;;;;;1.60;87.23;95944.16;4954117;28;20118;-46
2021/04/19 05:06:03;;;;;;;17.25;15.73;;;;;;;1.59;87.63;95942.47;4953209;28;20031;-44
2021/04/19 05:08:30;;;;;;;17.15;15.55;;;;;;;1.61;87.44;95940.63;4955541;28;20038;-46
2021/04/19 05:10:58;;;;;;;16.73;15.30;;;;;;;1.62;87.39;95944.91;4956200;28;20046;-44
2021/04/19 05:13:24;;;;;;;20.52;18.58;;;;;;;1.66;87.25;95950.78;4954245;28;20183;-44
2021/04/19 05:15:50;;;;;;;21.25;19.20;;;;;;;1.65;87.18;95949.94;4957527;28;20059;-44
2021/04/19 05:18:17;;;;;;;26.70;24.42;;;;;;;1.69;87.37;95948.88;4949624;28;20039;-45
2021/04/19 05:20:43;;;;;;;23.83;21.63;;;;;;;1.76;86.63;95945.94;4952236;28;20038;-48
2021/04/19 05:23:16;;;;;;;23.40;21.10;;;;;;;1.77;87.45;95951.06;4955054;28;20031;-44
2021/04/19 05:25:44;;;;;;;21.20;19.40;;;;;;;1.84;87.33;95954.16;4955892;28;20027;-44
2021/04/19 05:28:10;;;;;;;20.63;18.85;;;;;;;1.82;88.04;95950.81;4954508;28;20031;-45
2021/04/19 05:30:36;;;;;;;18.30;16.70;;;;;;;1.87;87.77;95956.56;4956142;28;20699;-46
2021/04/19 05:33:05;;;;;;;18.60;16.80;;;;;;;1.97;87.01;95951.72;4954399;28;20027;-44
2021/04/19 05:35:32;;;;;;;20.38;18.67;;;;;;;2.06;87.16;95950.41;4954104;28;20122;-46
2021/04/19 05:37:58;;;;;;;23.27;20.98;;;;;;;2.16;86.73;95959.38;4956118;28;20035;-44
2021/04/19 05:40:26;;;;;;;23.00;20.90;;;;;;;2.27;86.71;95959.63;4952130;28;20066;-45
2021/04/19 05:42:52;;;;;;;24.83;22.63;;;;;;;2.40;86.22;95953.75;4952330;28;20066;-44
2021/04/19 05:45:18;;;;;;;25.02;22.30;;;;;;;2.53;86.16;95957.34;4956082;28;20065;-45
2021/04/19 05:47:48;;;;;;;25.60;22.92;;;;;;;2.60;86.74;95954.41;4955849;28;20110;-46
2021/04/19 05:50:18;;;;;;;23.88;21.70;;;;;;;2.68;85.84;95953.06;4955387;28;20398;-46
2021/04/19 05:52:45;;;;;;;30.60;27.63;;;;;;;2.82;85.78;95954.00;4956004;28;20373;-47
2021/04/19 05:55:12;;;;;;;28.75;26.15;;;;;;;2.89;86.30;95954.50;4954464;28;20098;-45
2021/04/19 05:57:57;;;;;;;28.48;25.63;;;;;;;3.03;85.54;95951.97;4955119;28;20031;-46
2021/04/19 06:00:37;;;;;;;26.20;23.38;;;;;;;3.22;84.77;95956.09;4953907;28;20032;-46
2021/04/19 06:03:20;;;;;;;23.77;21.55;;;;;;;3.36;83.90;95953.50;4954660;28;20039;-45
2021/04/19 06:06:07;;;;;;;22.33;20.17;;;;;;;3.48;83.82;95959.72;4948274;28;20067;-44
2021/04/19 06:08:41;;;;;;;16.85;15.05;;;;;;;3.58;84.14;95962.63;4953516;28;20027;-45
2021/04/19 06:11:33;;;;;;;16.23;14.50;;;;;;;3.70;82.67;95955.84;4952944;28;20035;-46
2021/04/19 06:14:01;;;;;;;15.40;13.13;;;;;;;3.78;82.49;95952.78;4949640;28;20111;-44
2021/04/19 06:16:28;;;;;;;13.50;12.20;;;;;;;3.83;81.30;95948.97;4953323;28;20031;-46
2021/04/19 06:18:55;;;;;;;24.00;21.60;;;;;;;4.34;79.64;95939.75;4953874;28;20038;-45
2021/04/19 06:21:21;;;;;;;19.33;17.60;;;;;;;5.10;77.17;95949.72;4958942;28;20019;-45
2021/04/19 06:23:47;;;;;;;15.57;13.88;;;;;;;5.63;74.47;95948.78;4952850;28;20130;-45
2021/04/19 06:26:13;;;;;;;15.90;14.40;;;;;;;6.14;71.62;95947.94;4954999;28;20057;-45
2021/04/19 06:28:38;;;;;;;12.60;11.38;;;;;;;6.59;70.51;95948.19;4956793;28;20078;-45
2021/04/19 06:31:06;;;;;;;11.10;10.20;;;;;;;6.47;69.28;95949.06;4958440;28;20065;-46
2021/04/19 06:33:33;;;;;;;11.95;10.82;;;;;;;6.39;69.57;95941.78;4953858;28;20449;-45
2021/04/19 06:35:58;;;;;;;11.80;10.68;;;;;;;6.24;69.02;95948.13;4955926;28;20038;-45
2021/04/19 06:38:24;;;;;;;11.85;10.85;;;;;;;6.19;68.52;95940.59;4957710;28;20023;-45
2021/04/19 06:40:50;;;;;;;11.98;10.85;;;;;;;6.22;70.35;95945.59;4955712;28;20027;-45
2021/04/19 06:43:16;;;;;;;11.27;10.18;;;;;;;6.22;69.34;95950.00;4959751;28;20030;-46
2021/04/19 06:45:42;;;;;;;9.32;8.50;;;;;;;6.28;68.86;95945.16;4958961;28;20035;-46
2021/04/19 06:48:09;;;;;;;9.43;8.63;;;;;;;6.39;67.88;95946.19;4951684;28;20035;-45
2021/04/19 06:50:37;;;;;;;9.90;9.07;;;;;;;6.36;68.40;95944.59;4970038;28;20178;-46
2021/04/19 06:53:03;;;;;;;9.98;9.00;;;;;;;6.44;68.36;95944.91;4955724;28;20042;-46
2021/04/19 06:55:29;;;;;;;9.82;8.85;;;;;;;6.52;67.81;95951.38;4955990;28;20035;-47
2021/04/19 06:57:59;;;;;;;10.23;9.25;;;;;;;6.54;66.55;95950.31;4958420;28;20031;-47
2021/04/19 07:00:28;;;;;;;10.18;9.27;;;;;;;6.95;66.84;95957.84;4959024;28;20034;-49
2021/04/19 07:03:00;;;;;;;9.23;8.45;;;;;;;7.15;65.42;95954.59;4958698;28;20038;-47
2021/04/19 07:05:31;;;;;;;9.98;9.10;;;;;;;7.21;64.56;95952.50;4955395;28;20113;-46
2021/04/19 07:08:04;;;;;;;10.45;9.55;;;;;;;7.02;64.77;95959.09;4956783;28;20031;-47
2021/04/19 07:10:32;;;;;;;9.18;8.45;;;;;;;7.02;64.66;95954.69;4956504;28;20448;-47
2021/04/19 07:13:04;;;;;;;10.77;9.77;;;;;;;7.18;64.24;95958.78;4973147;28;20039;-51
2021/04/19 07:15:31;;;;;;;10.13;9.32;;;;;;;7.35;64.22;95948.84;4957255;28;20435;-47
2021/04/19 07:17:57;;;;;;;9.98;9.15;;;;;;;7.50;64.11;95954.69;4951522;28;20027;-47
2021/04/19 07:20:22;;;;;;;10.45;9.55;;;;;;;7.48;63.51;95957.44;4956485;28;20634;-46
2021/04/19 07:22:48;;;;;;;9.95;9.05;;;;;;;7.35;62.97;95954.91;4958735;28;20031;-46
2021/04/19 07:25:14;;;;;;;9.10;8.30;;;;;;;7.22;63.79;95952.38;4956816;28;20016;-46
2021/04/19 07:27:40;;;;;;;9.70;8.77;;;;;;;7.23;64.31;95954.03;4955483;28;20046;-46
2021/04/19 07:30:09;;;;;;;9.82;8.98;;;;;;;7.24;63.96;95954.88;4957940;28;20019;-47
2021/04/19 07:32:36;;;;;;;10.30;9.35;;;;;;;7.36;63.57;95945.28;4956265;28;20031;-48
2021/04/19 07:35:05;;;;;;;11.07;10.18;;;;;;;7.39;63.59;95948.47;4957162;28;20062;-46
2021/04/19 07:37:31;;;;;;;11.65;10.70;;;;;;;7.63;63.61;95947.59;4958886;28;20126;-46
2021/04/19 07:39:56;;;;;;;11.50;10.50;;;;;;;7.52;64.76;95944.94;4957833;28;20061;-46
2021/04/19 07:42:22;;;;;;;12.45;11.15;;;;;;;7.44;64.53;95943.75;4956193;28;20034;-45
2021/04/19 07:44:50;;;;;;;13.13;11.95;;;;;;;7.42;65.19;95940.41;4952985;28;20041;-46
2021/04/19 07:47:40;;;;;;;12.30;11.10;;;;;;;7.37;62.35;95942.53;4953693;28;20035;-48
2021/04/19 07:50:14;;;;;;;12.40;11.20;;;;;;;7.34;62.84;95939.31;4951100;28;20031;-47
2021/04/19 07:53:02;;;;;;;14.10;12.88;;;;;;;7.63;63.50;95942.34;4952552;28;20024;-46
2021/04/19 07:55:39;;;;;;;13.02;12.02;;;;;;;7.55;64.79;95932.44;4950428;28;20106;-46
2021/04/19 07:58:07;;;;;;;11.90;10.88;;;;;;;7.75;61.46;95940.56;4957298;28;20035;-46
2021/04/19 08:00:39;;;;;;;12.25;11.23;;;;;;;7.85;59.62;95931.03;4957548;28;20027;-45
2021/04/19 08:03:10;;;;;;;12.90;11.70;;;;;;;8.62;59.71;95932.97;4953630;28;20042;-47
2021/04/19 08:05:40;;;;;;;13.48;11.30;;;;;;;9.91;56.06;95925.84;4951172;28;20028;-47
2021/04/19 08:08:08;;;;;;;12.93;11.73;;;;;;;10.84;51.39;95925.66;4954611;28;20048;-45
2021/04/19 08:10:35;;;;;;;13.57;12.23;;;;;;;11.71;49.79;95924.84;4956587;28;20058;-46
2021/04/19 08:13:09;;;;;;;15.23;12.75;;;;;;;12.29;49.32;95921.22;4955930;28;20031;-48
2021/04/19 08:15:37;;;;;;;14.57;12.57;;;;;;;12.39;47.30;95912.41;4952667;28;20400;-45
2021/04/19 08:18:13;;;;;;;11.65;10.50;;;;;;;12.77;45.45;95914.94;4956177;28;20030;-48
2021/04/19 08:20:48;;;;;;;10.63;9.73;;;;;;;12.90;44.63;95908.28;4954890;28;20489;-47
2021/04/19 08:23:15;;;;;;;10.65;9.60;;;;;;;13.42;42.75;95909.38;4955637;28;20023;-48
2021/04/19 08:25:44;;;;;;;10.68;9.80;;;;;;;13.90;42.97;95907.22;4956814;28;20510;-47
2021/04/19 08:28:17;;;;;;;10.55;9.55;;;;;;;13.88;42.12;95905.72;4954037;28;20023;-45
2021/04/19 08:30:50;;;;;;;10.10;9.27;;;;;;;14.01;41.51;95903.47;4956114;28;20046;-46
2021/04/19 08:33:17;;;;;;;9.40;8.60;;;;;;;14.47;41.76;95904.97;4955334;28;20031;-46
2021/04/19 08:35:45;;;;;;;9.63;8.93;;;;;;;15.06;39.48;95912.06;4953076;28;20035;-47
2021/04/19 08:38:11;;;;;;;8.57;7.88;;;;;;;14.98;38.77;95923.47;4952490;28;20060;-46
2021/04/19 08:40:39;;;;;;;9.63;8.80;;;;;;;14.70;39.25;95907.00;4954493;28;20409;-47
2021/04/19 08:43:12;;;;;;;10.18;8.50;;;;;;;15.07;37.23;95907.59;4956187;28;20031;-47
2021/04/19 08:45:41;;;;;;;8.93;8.15;;;;;;;14.94;38.28;95910.75;4955991;28;20069;-50
2021/04/19 08:48:11;;;;;;;9.05;8.25;;;;;;;15.11;38.57;95915.03;4955132;28;20031;-45
2021/04/19 08:50:41;;;;;;;9.05;8.25;;;;;;;15.43;37.54;95913.41;4953165;28;20488;-46
2021/04/19 08:53:09;;;;;;;9.52;7.60;;;;;;;16.21;37.12;95904.94;4953799;28;20030;-47
2021/04/19 08:55:36;;;;;;;7.78;7.13;;;;;;;16.45;36.39;95911.16;4954691;28;20059;-45
2021/04/19 08:58:08;;;;;;;7.97;7.30;;;;;;;15.67;38.29;95913.53;4953392;28;20024;-44
2021/04/19 09:00:35;;;;;;;9.18;8.38;;;;;;;16.49;36.44;95908.97;4948052;28;20023;-47
2021/04/19 09:03:01;;;;;;;8.95;8.18;;;;;;;16.87;36.20;95909.91;4953381;28;20055;-44
2021/04/19 09:05:27;;;;;;;8.13;7.53;;;;;;;16.23;35.90;95907.44;4956012;28;20494;-48
2021/04/19 09:08:06;;;;;;;8.23;7.63;;;;;;;16.55;35.05;95905.63;4955957;28;20051;-47
2021/04/19 09:11:05;;;;;;;8.30;7.50;;;;;;;15.98;37.59;95905.69;4953980;28;20078;-43
2021/04/19 09:13:36;;;;;;;8.55;7.80;;;;;;;15.49;37.32;95903.09;4948611;28;20023;-45
2021/04/19 09:16:24;;;;;;;8.80;7.72;;;;;;;15.81;38.22;95904.06;4954145;28;20042;-43
2021/04/19 09:18:57;;;;;;;8.75;8.05;;;;;;;16.92;34.11;95896.09;4953934;28;20081;-46
2021/04/19 09:21:36;;;;;;;9.25;8.45;;;;;;;16.31;33.87;95887.00;4954401;28;20100;-43
2021/04/19 09:24:04;;;;;;;8.68;8.02;;;;;;;15.65;36.16;95900.44;4955288;28;20042;-46
2021/04/19 09:26:46;;;;;;;9.25;8.45;;;;;;;15.32;38.12;95895.16;4955549;28;20035;-45
2021/04/19 09:29:37;;;;;;;8.95;8.10;;;;;;;16.03;36.01;95895.41;4954829;28;20031;-46
2021/04/19 09:32:07;;;;;;;8.70;7.90;;;;;;;15.70;36.17;95895.44;4948335;28;20035;-46
2021/04/19 09:34:53;;;;;;;8.68;7.88;;;;;;;16.27;36.85;95896.31;4954339;28;20031;-47
2021/04/19 09:37:40;;;;;;;8.90;8.10;;;;;;;16.37;36.18;95881.97;4951002;28;20039;-48
2021/04/19 09:40:15;;;;;;;8.35;7.65;;;;;;;17.03;32.05;95889.56;4951015;28;20070;-47
2021/04/19 09:43:07;;;;;;;9.18;8.40;;;;;;;15.94;34.42;95885.78;4953854;28;20027;-47
2021/04/19 09:45:41;;;;;;;8.77;7.88;;;;;;;15.87;36.74;95892.75;4954913;28;20488;-47
2021/04/19 09:48:27;;;;;;;10.35;8.40;;;;;;;15.40;36.85;95892.50;4955380;28;20031;-48
2021/04/19 09:50:56;;;;;;;;;;;;;;;16.42;33.19;95887.59;4950413;28;20146;-48
2021/04/19 09:53:22;;;;;;;8.40;7.65;;;;;;;15.88;35.46;95886.44;4958928;28;19961;-48
2021/04/19 09:55:48;;;;;;;9.38;8.48;;;;;;;16.28;34.88;95875.88;4959099;28;20071;-46
2021/04/19 09:58:14;;;;;;;9.00;8.20;;;;;;;16.07;35.68;95874.63;4958778;28;20031;-48
2021/04/19 10:00:40;;;;;;;8.27;7.65;;;;;;;16.68;35.26;95881.13;4955621;28;20037;-45
2021/04/19 10:03:06;;;;;;;8.70;7.55;;;;;;;17.00;34.58;95885.44;4954775;28;20031;-47
2021/04/19 10:05:34;;;;;;;8.73;7.97;;;;;;;16.32;34.62;95885.13;4957901;28;20031;-46
2021/04/19 10:08:03;;;;;;;8.18;7.47;;;;;;;17.23;33.05;95879.25;4957808;28;20166;-47
2021/04/19 10:10:29;;;;;;;8.07;7.47;;;;;;;16.43;33.11;95878.63;4956439;28;20041;-47
2021/04/19 10:12:54;;;;;;;8.30;7.60;;;;;;;16.68;34.47;95873.16;4955869;28;20124;-48
2021/04/19 10:15:22;;;;;;;9.23;8.35;;;;;;;17.04;33.06;95875.28;4952034;28;20041;-49
2021/04/19 10:17:51;;;;;;;7.93;7.22;;;;;;;17.48;29.92;95865.78;4958042;28;20047;-44
2021/04/19 10:20:27;;;;;;;7.78;7.10;;;;;;;16.67;32.62;95866.19;4956492;28;20039;-47
2021/04/19 10:23:11;;;;;;;7.70;7.10;;;;;;;17.36;30.60;95870.69;4952766;28;20086;-46
2021/04/19 10:25:52;;;;;;;7.32;6.75;;;;;;;17.20;31.84;95873.50;4954326;28;20484;-47
2021/04/19 10:28:41;;;;;;;8.10;7.45;;;;;;;17.62;32.27;95858.81;4955078;28;20034;-46
2021/04/19 10:31:15;;;;;;;8.95;6.18;;;;;;;18.50;28.58;95860.78;4958546;28;20049;-44
2021/04/19 10:33:43;;;;;;;7.25;6.55;;;;;;;17.36;31.18;95867.19;4951103;28;20063;-47
2021/04/19 10:36:23;;;;;;;7.78;6.95;;;;;;;17.92;31.15;95853.47;4953625;28;20028;-45
2021/04/19 10:38:54;;;;;;;7.95;7.30;;;;;;;17.44;30.43;95856.47;4957361;28;20109;-45
2021/04/19 10:41:34;;;;;;;8.00;7.20;;;;;;;17.90;29.04;95858.16;4956413;28;20027;-47
2021/04/19 10:44:00;;;;;;;7.60;6.88;;;;;;;18.04;29.29;95856.53;4958003;28;20054;-44
2021/04/19 10:46:32;;;;;;;7.22;6.50;;;;;;;17.76;29.67;95851.84;4959123;28;20062;-44
2021/04/19 10:49:00;;;;;;;7.82;7.22;;;;;;;18.81;26.74;95854.34;4954516;28;20035;-46
2021/04/19 10:51:31;;;;;;;6.50;6.00;;;;;;;18.26;30.19;95854.78;4957839;28;20046;-46
2021/04/19 10:54:03;;;;;;;9.32;8.50;;;;;;;18.99;28.63;95847.78;4957065;28;20033;-44
2021/04/19 10:56:29;;;;;;;6.93;6.28;;;;;;;18.95;29.21;95851.81;4957963;28;20530;-47
2021/04/19 10:59:06;;;;;;;7.15;6.55;;;;;;;18.09;28.24;95848.00;4957633;28;20496;-44
2021/04/19 11:01:34;;;;;;;6.95;6.45;;;;;;;18.21;27.97;95848.34;4956588;28;20042;-47
2021/04/19 11:04:02;;;;;;;6.25;5.85;;;;;;;18.35;28.23;95842.19;4954250;28;20102;-44
2021/04/19 11:06:28;;;;;;;7.20;6.70;;;;;;;18.48;30.12;95844.16;4957225;28;20039;-44
2021/04/19 11:08:56;;;;;;;7.55;6.97;;;;;;;19.37;29.64;95839.47;4952799;28;20027;-45
2021/04/19 11:11:29;;;;;;;7.68;7.07;;;;;;;19.57;29.78;95839.63;4955018;28;20391;-45
2021/04/19 11:14:10;;;;;;;7.40;6.70;;;;;;;18.87;29.48;95839.44;4957094;28;20071;-46
2021/04/19 11:16:36;;;;;;;7.53;6.82;;;;;;;19.23;29.15;95833.22;4955252;28;20034;-46
2021/04/19 11:19:03;;;;;;;7.63;6.85;;;;;;;17.64;30.95;95839.97;4957217;28;20027;-46
2021/04/19 11:21:31;;;;;;;7.97;7.28;;;;;;;17.01;32.79;95839.22;4956986;28;20094;-45
2021/04/19 11:24:15;;;;;;;8.63;7.80;;;;;;;16.66;32.95;95832.63;4956698;28;20023;-44
2021/04/19 11:26:42;;;;;;;8.25;7.45;;;;;;;17.67;32.38;95829.78;4953880;28;20467;-46
2021/04/19 11:29:08;;;;;;;8.85;8.05;;;;;;;17.98;32.29;95828.75;4956944;28;20027;-45
2021/04/19 11:31:49;;;;;;;8.23;7.53;;;;;;;17.45;31.99;95828.84;4957307;28;20031;-48
2021/04/19 11:34:16;;;;;;;8.27;7.57;;;;;;;17.56;32.82;95827.56;4956104;28;20554;-45
2021/04/19 11:36:45;;;;;;;8.20;7.53;;;;;;;16.47;32.34;95824.16;4954937;28;20023;-44
2021/04/19 11:39:21;;;;;;;9.38;8.40;;;;;;;16.55;32.40;95826.75;4956602;28;20031;-47
2021/04/19 11:41:49;;;;;;;9.05;7.80;;;;;;;16.01;34.38;95828.34;4957742;28;20019;-47